sensor_id;sensor_type;location;lat;lon;timestamp;P1;durP1;ratioP1;P2;durP2;ratioP2
7587;SDS011;3835;48.850;8.938;2023-11-18T00:01:21;13.97;;;13.07;;
7587;SDS011;3835;48.850;8.938;2023-11-18T00:03:48;13.30;;;12.60;;
7587;SDS011;3835;48.850;8.938;2023-11-18T00:06:16;14.83;;;14.03;;
7587;SDS011;3835;48.850;8.938;2023-11-18T00:08:43;14.47;;;13.57;;
7587;SDS011;3835;48.850;8.938;2023-11-18T00:11:10;12.93;;;12.13;;
7587;SDS011;3835;48.850;8.938;2023-11-18T00:13:38;14.50;;;13.70;;
7587;SDS011;3835;48.850;8.938;2023-11-18T00:16:07;12.97;;;12.27;;
7587;SDS011;3835;48.850;8.938;2023-11-18T00:18:37;13.60;;;12.80;;
7587;SDS011;3835;48.850;8.938;2023-11-18T00:21:04;14.03;;;13.13;;
7587;SDS011;3835;48.850;8.938;2023-11-18T00:23:33;14.03;;;13.03;;
7587;SDS011;3835;48.850;8.938;2023-11-18T00:26:00;14.60;;;13.70;;
7587;SDS011;3835;48.850;8.938;2023-11-18T00:28:28;15.23;;;14.23;;
7587;SDS011;3835;48.850;8.938;2023-11-18T00:30:55;15.40;;;14.40;;
7587;SDS011;3835;48.850;8.938;2023-11-18T00:33:22;16.27;;;15.17;;
7587;SDS011;3835;48.850;8.938;2023-11-18T00:35:48;16.17;;;15.17;;
7587;SDS011;3835;48.850;8.938;2023-11-18T00:38:15;13.87;;;12.97;;
7587;SDS011;3835;48.850;8.938;2023-11-18T00:40:44;14.97;;;14.07;;
7587;SDS011;3835;48.850;8.938;2023-11-18T00:43:11;15.70;;;14.80;;
7587;SDS011;3835;48.850;8.938;2023-11-18T00:45:37;15.33;;;14.13;;
7587;SDS011;3835;48.850;8.938;2023-11-18T00:48:05;15.20;;;14.20;;
7587;SDS011;3835;48.850;8.938;2023-11-18T00:50:32;16.13;;;15.07;;
7587;SDS011;3835;48.850;8.938;2023-11-18T00:52:59;17.13;;;15.93;;
7587;SDS011;3835;48.850;8.938;2023-11-18T00:55:26;16.83;;;15.57;;
7587;SDS011;3835;48.850;8.938;2023-11-18T00:57:54;16.73;;;15.53;;
7587;SDS011;3835;48.850;8.938;2023-11-18T01:00:21;16.80;;;15.50;;
7587;SDS011;3835;48.850;8.938;2023-11-18T01:02:48;15.77;;;14.60;;
7587;SDS011;3835;48.850;8.938;2023-11-18T01:05:16;16.20;;;14.97;;
7587;SDS011;3835;48.850;8.938;2023-11-18T01:07:43;16.73;;;15.63;;
7587;SDS011;3835;48.850;8.938;2023-11-18T01:10:10;16.43;;;15.27;;
7587;SDS011;3835;48.850;8.938;2023-11-18T01:12:38;16.00;;;14.90;;
7587;SDS011;3835;48.850;8.938;2023-11-18T01:15:07;16.13;;;15.07;;
7587;SDS011;3835;48.850;8.938;2023-11-18T01:17:35;16.27;;;15.17;;
7587;SDS011;3835;48.850;8.938;2023-11-18T01:20:02;15.40;;;14.33;;
7587;SDS011;3835;48.850;8.938;2023-11-18T01:22:35;16.17;;;14.87;;
7587;SDS011;3835;48.850;8.938;2023-11-18T01:25:02;17.40;;;16.20;;
7587;SDS011;3835;48.850;8.938;2023-11-18T01:27:30;15.50;;;14.40;;
7587;SDS011;3835;48.850;8.938;2023-11-18T01:29:58;15.60;;;14.40;;
7587;SDS011;3835;48.850;8.938;2023-11-18T01:32:27;16.47;;;15.27;;
7587;SDS011;3835;48.850;8.938;2023-11-18T01:34:54;15.10;;;13.90;;
7587;SDS011;3835;48.850;8.938;2023-11-18T01:37:22;15.53;;;14.53;;
7587;SDS011;3835;48.850;8.938;2023-11-18T01:39:49;15.50;;;14.60;;
7587;SDS011;3835;48.850;8.938;2023-11-18T01:42:16;15.00;;;14.07;;
7587;SDS011;3835;48.850;8.938;2023-11-18T01:44:43;16.10;;;14.93;;
7587;SDS011;3835;48.850;8.938;2023-11-18T01:47:09;15.90;;;14.90;;
7587;SDS011;3835;48.850;8.938;2023-11-18T01:49:39;16.70;;;15.53;;
7587;SDS011;3835;48.850;8.938;2023-11-18T01:52:06;16.33;;;15.30;;
7587;SDS011;3835;48.850;8.938;2023-11-18T01:54:34;15.40;;;14.37;;
7587;SDS011;3835;48.850;8.938;2023-11-18T01:57:02;15.60;;;14.60;;
7587;SDS011;3835;48.850;8.938;2023-11-18T01:59:31;16.90;;;15.73;;
7587;SDS011;3835;48.850;8.938;2023-11-18T02:01:58;16.03;;;15.03;;
7587;SDS011;3835;48.850;8.938;2023-11-18T02:04:26;15.43;;;14.40;;
7587;SDS011;3835;48.850;8.938;2023-11-18T02:06:56;15.60;;;14.63;;
7587;SDS011;3835;48.850;8.938;2023-11-18T02:09:24;14.67;;;13.77;;
7587;SDS011;3835;48.850;8.938;2023-11-18T02:11:54;14.67;;;13.77;;
7587;SDS011;3835;48.850;8.938;2023-11-18T02:14:24;14.83;;;14.03;;
7587;SDS011;3835;48.850;8.938;2023-11-18T02:16:55;15.00;;;14.10;;
7587;SDS011;3835;48.850;8.938;2023-11-18T02:19:25;13.93;;;13.17;;
7587;SDS011;3835;48.850;8.938;2023-11-18T02:21:56;14.73;;;13.67;;
7587;SDS011;3835;48.850;8.938;2023-11-18T02:24:24;15.73;;;14.73;;
7587;SDS011;3835;48.850;8.938;2023-11-18T02:26:56;16.73;;;15.63;;
7587;SDS011;3835;48.850;8.938;2023-11-18T02:29:23;14.23;;;13.33;;
7587;SDS011;3835;48.850;8.938;2023-11-18T02:31:52;14.40;;;13.50;;
7587;SDS011;3835;48.850;8.938;2023-11-18T02:34:23;13.73;;;12.80;;
7587;SDS011;3835;48.850;8.938;2023-11-18T02:36:55;13.83;;;13.03;;
7587;SDS011;3835;48.850;8.938;2023-11-18T02:39:27;14.27;;;13.20;;
7587;SDS011;3835;48.850;8.938;2023-11-18T02:41:59;13.47;;;12.57;;
7587;SDS011;3835;48.850;8.938;2023-11-18T02:44:29;13.40;;;12.50;;
7587;SDS011;3835;48.850;8.938;2023-11-18T02:46:57;13.87;;;13.07;;
7587;SDS011;3835;48.850;8.938;2023-11-18T02:49:24;15.03;;;14.10;;
7587;SDS011;3835;48.850;8.938;2023-11-18T02:51:52;14.00;;;13.07;;
7587;SDS011;3835;48.850;8.938;2023-11-18T02:54:20;15.07;;;13.83;;
7587;SDS011;3835;48.850;8.938;2023-11-18T02:56:47;15.60;;;14.30;;
7587;SDS011;3835;48.850;8.938;2023-11-18T02:59:15;15.73;;;14.73;;
7587;SDS011;3835;48.850;8.938;2023-11-18T03:01:42;15.93;;;14.73;;
7587;SDS011;3835;48.850;8.938;2023-11-18T03:04:09;15.97;;;14.97;;
7587;SDS011;3835;48.850;8.938;2023-11-18T03:06:36;15.73;;;14.63;;
7587;SDS011;3835;48.850;8.938;2023-11-18T03:09:03;16.07;;;14.73;;
7587;SDS011;3835;48.850;8.938;2023-11-18T03:11:32;16.00;;;14.80;;
7587;SDS011;3835;48.850;8.938;2023-11-18T03:13:59;15.07;;;14.07;;
7587;SDS011;3835;48.850;8.938;2023-11-18T03:16:27;16.47;;;15.37;;
7587;SDS011;3835;48.850;8.938;2023-11-18T03:18:54;17.37;;;16.27;;
7587;SDS011;3835;48.850;8.938;2023-11-18T03:21:21;15.90;;;14.70;;
7587;SDS011;3835;48.850;8.938;2023-11-18T03:23:47;15.50;;;14.43;;
7587;SDS011;3835;48.850;8.938;2023-11-18T03:26:14;15.20;;;14.20;;
7587;SDS011;3835;48.850;8.938;2023-11-18T03:28:41;15.30;;;14.20;;
7587;SDS011;3835;48.850;8.938;2023-11-18T03:31:08;15.13;;;14.10;;
7587;SDS011;3835;48.850;8.938;2023-11-18T03:33:37;14.77;;;13.77;;
7587;SDS011;3835;48.850;8.938;2023-11-18T03:36:05;15.10;;;14.10;;
7587;SDS011;3835;48.850;8.938;2023-11-18T03:38:33;15.10;;;14.20;;
7587;SDS011;3835;48.850;8.938;2023-11-18T03:41:00;15.63;;;14.60;;
7587;SDS011;3835;48.850;8.938;2023-11-18T03:43:27;14.30;;;13.40;;
7587;SDS011;3835;48.850;8.938;2023-11-18T03:45:53;14.70;;;13.60;;
7587;SDS011;3835;48.850;8.938;2023-11-18T03:48:21;14.90;;;14.00;;
7587;SDS011;3835;48.850;8.938;2023-11-18T03:50:49;14.47;;;13.57;;
7587;SDS011;3835;48.850;8.938;2023-11-18T03:53:16;15.30;;;14.30;;
7587;SDS011;3835;48.850;8.938;2023-11-18T03:55:43;14.23;;;13.33;;
7587;SDS011;3835;48.850;8.938;2023-11-18T03:58:10;14.77;;;13.67;;
7587;SDS011;3835;48.850;8.938;2023-11-18T04:00:37;14.30;;;13.30;;
7587;SDS011;3835;48.850;8.938;2023-11-18T04:03:03;14.07;;;13.17;;
7587;SDS011;3835;48.850;8.938;2023-11-18T04:05:34;14.83;;;13.57;;
7587;SDS011;3835;48.850;8.938;2023-11-18T04:08:04;15.10;;;14.20;;
7587;SDS011;3835;48.850;8.938;2023-11-18T04:10:31;14.50;;;13.60;;
7587;SDS011;3835;48.850;8.938;2023-11-18T04:12:58;14.93;;;13.73;;
7587;SDS011;3835;48.850;8.938;2023-11-18T04:15:25;14.93;;;14.07;;
7587;SDS011;3835;48.850;8.938;2023-11-18T04:17:52;15.13;;;14.03;;
7587;SDS011;3835;48.850;8.938;2023-11-18T04:20:18;14.93;;;13.93;;
7587;SDS011;3835;48.850;8.938;2023-11-18T04:22:45;15.43;;;14.23;;
7587;SDS011;3835;48.850;8.938;2023-11-18T04:25:13;15.00;;;13.83;;
7587;SDS011;3835;48.850;8.938;2023-11-18T04:27:40;14.87;;;13.70;;
7587;SDS011;3835;48.850;8.938;2023-11-18T04:30:07;15.73;;;14.63;;
7587;SDS011;3835;48.850;8.938;2023-11-18T04:32:34;15.93;;;14.87;;
7587;SDS011;3835;48.850;8.938;2023-11-18T04:35:02;15.77;;;14.77;;
7587;SDS011;3835;48.850;8.938;2023-11-18T04:37:33;14.93;;;13.93;;
7587;SDS011;3835;48.850;8.938;2023-11-18T04:40:00;16.73;;;15.50;;
7587;SDS011;3835;48.850;8.938;2023-11-18T04:42:28;16.13;;;14.73;;
7587;SDS011;3835;48.850;8.938;2023-11-18T04:44:55;16.43;;;15.23;;
7587;SDS011;3835;48.850;8.938;2023-11-18T04:47:22;16.03;;;14.73;;
7587;SDS011;3835;48.850;8.938;2023-11-18T04:49:50;16.23;;;15.23;;
7587;SDS011;3835;48.850;8.938;2023-11-18T04:52:17;16.90;;;15.73;;
7587;SDS011;3835;48.850;8.938;2023-11-18T04:54:45;16.97;;;15.87;;
7587;SDS011;3835;48.850;8.938;2023-11-18T04:57:13;15.50;;;14.60;;
7587;SDS011;3835;48.850;8.938;2023-11-18T04:59:41;17.83;;;16.70;;
7587;SDS011;3835;48.850;8.938;2023-11-18T05:02:08;16.30;;;15.30;;
7587;SDS011;3835;48.850;8.938;2023-11-18T05:04:35;17.20;;;16.20;;
7587;SDS011;3835;48.850;8.938;2023-11-18T05:07:02;15.67;;;14.67;;
7587;SDS011;3835;48.850;8.938;2023-11-18T05:09:31;16.67;;;15.67;;
7587;SDS011;3835;48.850;8.938;2023-11-18T05:11:59;17.60;;;16.37;;
7587;SDS011;3835;48.850;8.938;2023-11-18T05:14:26;17.20;;;16.10;;
7587;SDS011;3835;48.850;8.938;2023-11-18T05:16:55;19.33;;;18.13;;
7587;SDS011;3835;48.850;8.938;2023-11-18T05:19:22;18.17;;;17.07;;
7587;SDS011;3835;48.850;8.938;2023-11-18T05:21:47;18.03;;;16.90;;
7587;SDS011;3835;48.850;8.938;2023-11-18T05:24:15;17.60;;;16.53;;
7587;SDS011;3835;48.850;8.938;2023-11-18T05:26:42;18.00;;;16.80;;
7587;SDS011;3835;48.850;8.938;2023-11-18T05:29:09;17.73;;;16.43;;
7587;SDS011;3835;48.850;8.938;2023-11-18T05:31:41;18.70;;;17.40;;
7587;SDS011;3835;48.850;8.938;2023-11-18T05:34:10;19.77;;;18.47;;
7587;SDS011;3835;48.850;8.938;2023-11-18T05:36:37;18.07;;;16.87;;
7587;SDS011;3835;48.850;8.938;2023-11-18T05:39:05;18.03;;;16.83;;
7587;SDS011;3835;48.850;8.938;2023-11-18T05:41:34;17.53;;;16.33;;
7587;SDS011;3835;48.850;8.938;2023-11-18T05:44:04;15.87;;;14.77;;
7587;SDS011;3835;48.850;8.938;2023-11-18T05:46:33;15.93;;;14.83;;
7587;SDS011;3835;48.850;8.938;2023-11-18T05:49:01;17.13;;;16.03;;
7587;SDS011;3835;48.850;8.938;2023-11-18T05:51:33;15.30;;;14.10;;
7587;SDS011;3835;48.850;8.938;2023-11-18T05:54:00;16.83;;;15.73;;
7587;SDS011;3835;48.850;8.938;2023-11-18T05:56:27;16.47;;;15.27;;
7587;SDS011;3835;48.850;8.938;2023-11-18T05:58:54;17.10;;;15.90;;
7587;SDS011;3835;48.850;8.938;2023-11-18T06:01:21;15.20;;;14.10;;
7587;SDS011;3835;48.850;8.938;2023-11-18T06:03:48;16.90;;;15.73;;
7587;SDS011;3835;48.850;8.938;2023-11-18T06:06:15;16.70;;;15.40;;
7587;SDS011;3835;48.850;8.938;2023-11-18T06:08:43;16.33;;;15.23;;
7587;SDS011;3835;48.850;8.938;2023-11-18T06:11:12;15.63;;;14.63;;
7587;SDS011;3835;48.850;8.938;2023-11-18T06:13:40;16.40;;;15.30;;
7587;SDS011;3835;48.850;8.938;2023-11-18T06:16:09;16.90;;;15.70;;
7587;SDS011;3835;48.850;8.938;2023-11-18T06:18:39;16.57;;;15.47;;
7587;SDS011;3835;48.850;8.938;2023-11-18T06:21:10;15.20;;;14.07;;
7587;SDS011;3835;48.850;8.938;2023-11-18T06:23:37;17.00;;;15.70;;
7587;SDS011;3835;48.850;8.938;2023-11-18T06:26:06;16.73;;;15.63;;
7587;SDS011;3835;48.850;8.938;2023-11-18T06:28:35;15.83;;;14.73;;
7587;SDS011;3835;48.850;8.938;2023-11-18T06:31:03;16.80;;;15.60;;
7587;SDS011;3835;48.850;8.938;2023-11-18T06:33:35;16.67;;;15.60;;
7587;SDS011;3835;48.850;8.938;2023-11-18T06:36:03;16.27;;;15.17;;
7587;SDS011;3835;48.850;8.938;2023-11-18T06:38:30;16.00;;;14.90;;
7587;SDS011;3835;48.850;8.938;2023-11-18T06:40:59;16.27;;;15.27;;
7587;SDS011;3835;48.850;8.938;2023-11-18T06:43:29;17.17;;;15.93;;
7587;SDS011;3835;48.850;8.938;2023-11-18T06:46:07;15.63;;;14.57;;
7587;SDS011;3835;48.850;8.938;2023-11-18T06:48:35;16.30;;;15.13;;
7587;SDS011;3835;48.850;8.938;2023-11-18T06:51:02;15.73;;;14.63;;
7587;SDS011;3835;48.850;8.938;2023-11-18T06:53:30;15.60;;;14.53;;
7587;SDS011;3835;48.850;8.938;2023-11-18T06:55:56;15.60;;;14.40;;
7587;SDS011;3835;48.850;8.938;2023-11-18T06:58:23;15.97;;;14.87;;
7587;SDS011;3835;48.850;8.938;2023-11-18T07:00:51;16.07;;;14.77;;
7587;SDS011;3835;48.850;8.938;2023-11-18T07:03:18;16.70;;;15.50;;
7587;SDS011;3835;48.850;8.938;2023-11-18T07:05:46;15.03;;;13.93;;
7587;SDS011;3835;48.850;8.938;2023-11-18T07:08:13;14.83;;;13.87;;
7587;SDS011;3835;48.850;8.938;2023-11-18T07:10:40;14.13;;;13.13;;
7587;SDS011;3835;48.850;8.938;2023-11-18T07:13:07;15.03;;;14.07;;
7587;SDS011;3835;48.850;8.938;2023-11-18T07:15:35;15.67;;;14.67;;
7587;SDS011;3835;48.850;8.938;2023-11-18T07:18:04;14.23;;;13.33;;
7587;SDS011;3835;48.850;8.938;2023-11-18T07:20:31;13.60;;;12.77;;
7587;SDS011;3835;48.850;8.938;2023-11-18T07:22:58;13.43;;;12.57;;
7587;SDS011;3835;48.850;8.938;2023-11-18T07:25:25;14.33;;;13.10;;
7587;SDS011;3835;48.850;8.938;2023-11-18T07:27:52;14.83;;;14.03;;
7587;SDS011;3835;48.850;8.938;2023-11-18T07:30:20;13.03;;;12.27;;
7587;SDS011;3835;48.850;8.938;2023-11-18T07:32:50;14.43;;;13.63;;
7587;SDS011;3835;48.850;8.938;2023-11-18T07:35:18;15.57;;;14.63;;
7587;SDS011;3835;48.850;8.938;2023-11-18T07:37:45;13.83;;;12.93;;
7587;SDS011;3835;48.850;8.938;2023-11-18T07:40:12;13.40;;;12.50;;
7587;SDS011;3835;48.850;8.938;2023-11-18T07:42:40;14.57;;;13.47;;
7587;SDS011;3835;48.850;8.938;2023-11-18T07:45:07;13.10;;;12.30;;
7587;SDS011;3835;48.850;8.938;2023-11-18T07:47:42;16.00;;;15.10;;
7587;SDS011;3835;48.850;8.938;2023-11-18T07:50:09;14.27;;;13.37;;
7587;SDS011;3835;48.850;8.938;2023-11-18T07:52:39;13.97;;;13.17;;
7587;SDS011;3835;48.850;8.938;2023-11-18T07:55:06;14.20;;;13.30;;
7587;SDS011;3835;48.850;8.938;2023-11-18T07:57:38;14.43;;;13.57;;
7587;SDS011;3835;48.850;8.938;2023-11-18T08:00:05;14.10;;;13.40;;
7587;SDS011;3835;48.850;8.938;2023-11-18T08:02:34;16.27;;;15.17;;
7587;SDS011;3835;48.850;8.938;2023-11-18T08:05:01;14.73;;;13.90;;
7587;SDS011;3835;48.850;8.938;2023-11-18T08:07:29;14.03;;;13.13;;
7587;SDS011;3835;48.850;8.938;2023-11-18T08:09:57;16.13;;;14.87;;
7587;SDS011;3835;48.850;8.938;2023-11-18T08:12:24;15.37;;;14.37;;
7587;SDS011;3835;48.850;8.938;2023-11-18T08:14:50;12.97;;;12.27;;
7587;SDS011;3835;48.850;8.938;2023-11-18T08:17:17;13.73;;;12.93;;
7587;SDS011;3835;48.850;8.938;2023-11-18T08:19:45;13.27;;;12.50;;
7587;SDS011;3835;48.850;8.938;2023-11-18T08:22:12;13.37;;;12.57;;
7587;SDS011;3835;48.850;8.938;2023-11-18T08:24:41;13.60;;;12.80;;
7587;SDS011;3835;48.850;8.938;2023-11-18T08:27:10;14.90;;;14.00;;
7587;SDS011;3835;48.850;8.938;2023-11-18T08:29:37;14.13;;;13.33;;
7587;SDS011;3835;48.850;8.938;2023-11-18T08:32:04;14.83;;;13.97;;
7587;SDS011;3835;48.850;8.938;2023-11-18T08:34:34;14.03;;;13.17;;
7587;SDS011;3835;48.850;8.938;2023-11-18T08:37:02;13.77;;;13.07;;
7587;SDS011;3835;48.850;8.938;2023-11-18T08:39:29;13.80;;;12.57;;
7587;SDS011;3835;48.850;8.938;2023-11-18T08:41:57;14.57;;;13.60;;
7587;SDS011;3835;48.850;8.938;2023-11-18T08:44:25;18.23;;;16.63;;
7587;SDS011;3835;48.850;8.938;2023-11-18T08:46:52;15.43;;;14.53;;
7587;SDS011;3835;48.850;8.938;2023-11-18T08:49:19;13.93;;;13.17;;
7587;SDS011;3835;48.850;8.938;2023-11-18T08:51:47;14.17;;;13.37;;
7587;SDS011;3835;48.850;8.938;2023-11-18T08:54:14;13.93;;;13.13;;
7587;SDS011;3835;48.850;8.938;2023-11-18T08:56:50;13.17;;;12.37;;
7587;SDS011;3835;48.850;8.938;2023-11-18T08:59:18;13.77;;;12.97;;
7587;SDS011;3835;48.850;8.938;2023-11-18T09:01:51;13.87;;;13.10;;
7587;SDS011;3835;48.850;8.938;2023-11-18T09:04:21;15.03;;;14.03;;
7587;SDS011;3835;48.850;8.938;2023-11-18T09:06:48;14.90;;;14.03;;
7587;SDS011;3835;48.850;8.938;2023-11-18T09:09:16;15.23;;;14.43;;
7587;SDS011;3835;48.850;8.938;2023-11-18T09:11:51;14.00;;;13.23;;
7587;SDS011;3835;48.850;8.938;2023-11-18T09:14:18;13.53;;;12.73;;
7587;SDS011;3835;48.850;8.938;2023-11-18T09:16:45;12.13;;;11.43;;
7587;SDS011;3835;48.850;8.938;2023-11-18T09:19:14;12.73;;;12.03;;
7587;SDS011;3835;48.850;8.938;2023-11-18T09:21:42;14.03;;;13.23;;
7587;SDS011;3835;48.850;8.938;2023-11-18T09:24:09;11.83;;;11.23;;
7587;SDS011;3835;48.850;8.938;2023-11-18T09:26:38;11.80;;;10.90;;
7587;SDS011;3835;48.850;8.938;2023-11-18T09:29:05;12.73;;;12.03;;
7587;SDS011;3835;48.850;8.938;2023-11-18T09:31:33;13.00;;;12.13;;
7587;SDS011;3835;48.850;8.938;2023-11-18T09:34:01;13.73;;;12.93;;
7587;SDS011;3835;48.850;8.938;2023-11-18T09:36:32;13.60;;;12.90;;
7587;SDS011;3835;48.850;8.938;2023-11-18T09:39:01;13.50;;;12.57;;
7587;SDS011;3835;48.850;8.938;2023-11-18T09:41:29;12.97;;;12.17;;
7587;SDS011;3835;48.850;8.938;2023-11-18T09:43:58;13.77;;;12.50;;
7587;SDS011;3835;48.850;8.938;2023-11-18T09:46:27;13.10;;;12.20;;
7587;SDS011;3835;48.850;8.938;2023-11-18T09:49:01;12.83;;;11.77;;
7587;SDS011;3835;48.850;8.938;2023-11-18T09:51:43;13.17;;;12.47;;
7587;SDS011;3835;48.850;8.938;2023-11-18T09:54:27;12.33;;;11.77;;
7587;SDS011;3835;48.850;8.938;2023-11-18T09:57:03;13.00;;;12.40;;
7587;SDS011;3835;48.850;8.938;2023-11-18T09:59:38;12.90;;;12.13;;
7587;SDS011;3835;48.850;8.938;2023-11-18T10:02:10;12.97;;;12.17;;
7587;SDS011;3835;48.850;8.938;2023-11-18T10:04:37;13.13;;;12.53;;
7587;SDS011;3835;48.850;8.938;2023-11-18T10:07:06;14.03;;;13.33;;
7587;SDS011;3835;48.850;8.938;2023-11-18T10:09:35;13.33;;;12.67;;
7587;SDS011;3835;48.850;8.938;2023-11-18T10:12:04;12.77;;;12.07;;
7587;SDS011;3835;48.850;8.938;2023-11-18T10:14:32;13.03;;;12.37;;
7587;SDS011;3835;48.850;8.938;2023-11-18T10:16:59;13.73;;;12.97;;
7587;SDS011;3835;48.850;8.938;2023-11-18T10:22:23;14.50;;;13.67;;
7587;SDS011;3835;48.850;8.938;2023-11-18T10:24:51;13.73;;;13.03;;
7587;SDS011;3835;48.850;8.938;2023-11-18T10:27:20;13.30;;;12.70;;
7587;SDS011;3835;48.850;8.938;2023-11-18T10:29:50;11.97;;;11.37;;
7587;SDS011;3835;48.850;8.938;2023-11-18T10:32:21;13.57;;;12.63;;
7587;SDS011;3835;48.850;8.938;2023-11-18T10:34:52;14.10;;;13.23;;
7587;SDS011;3835;48.850;8.938;2023-11-18T10:37:23;12.93;;;12.23;;
7587;SDS011;3835;48.850;8.938;2023-11-18T10:39:49;13.97;;;13.30;;
7587;SDS011;3835;48.850;8.938;2023-11-18T10:42:17;13.90;;;12.73;;
7587;SDS011;3835;48.850;8.938;2023-11-18T10:44:56;13.73;;;13.03;;
7587;SDS011;3835;48.850;8.938;2023-11-18T10:47:24;15.33;;;14.50;;
7587;SDS011;3835;48.850;8.938;2023-11-18T10:49:52;14.93;;;13.93;;
7587;SDS011;3835;48.850;8.938;2023-11-18T10:52:21;14.57;;;13.73;;
7587;SDS011;3835;48.850;8.938;2023-11-18T10:54:51;13.50;;;12.77;;
7587;SDS011;3835;48.850;8.938;2023-11-18T10:57:19;13.77;;;13.07;;
7587;SDS011;3835;48.850;8.938;2023-11-18T10:59:57;13.30;;;12.70;;
7587;SDS011;3835;48.850;8.938;2023-11-18T11:02:25;14.30;;;13.60;;
7587;SDS011;3835;48.850;8.938;2023-11-18T11:04:59;15.33;;;14.53;;
7587;SDS011;3835;48.850;8.938;2023-11-18T11:07:28;13.23;;;12.53;;
7587;SDS011;3835;48.850;8.938;2023-11-18T11:09:58;14.97;;;14.07;;
7587;SDS011;3835;48.850;8.938;2023-11-18T11:12:29;13.97;;;12.97;;
7587;SDS011;3835;48.850;8.938;2023-11-18T11:15:07;12.93;;;12.23;;
7587;SDS011;3835;48.850;8.938;2023-11-18T11:17:39;13.73;;;12.93;;
7587;SDS011;3835;48.850;8.938;2023-11-18T11:20:12;15.10;;;14.10;;
7587;SDS011;3835;48.850;8.938;2023-11-18T11:22:52;14.37;;;13.23;;
7587;SDS011;3835;48.850;8.938;2023-11-18T11:25:30;13.87;;;13.20;;
7587;SDS011;3835;48.850;8.938;2023-11-18T11:28:05;16.63;;;15.63;;
7587;SDS011;3835;48.850;8.938;2023-11-18T11:30:40;15.97;;;14.87;;
7587;SDS011;3835;48.850;8.938;2023-11-18T11:33:12;16.93;;;15.43;;
7587;SDS011;3835;48.850;8.938;2023-11-18T11:35:46;14.50;;;13.63;;
7587;SDS011;3835;48.850;8.938;2023-11-18T11:38:23;14.57;;;13.67;;
7587;SDS011;3835;48.850;8.938;2023-11-18T11:40:51;14.37;;;13.50;;
7587;SDS011;3835;48.850;8.938;2023-11-18T11:43:20;15.90;;;15.10;;
7587;SDS011;3835;48.850;8.938;2023-11-18T11:45:48;14.97;;;14.03;;
7587;SDS011;3835;48.850;8.938;2023-11-18T11:48:16;14.47;;;13.77;;
7587;SDS011;3835;48.850;8.938;2023-11-18T11:53:41;13.97;;;13.13;;
7587;SDS011;3835;48.850;8.938;2023-11-18T11:56:13;15.37;;;14.67;;
7587;SDS011;3835;48.850;8.938;2023-11-18T11:58:46;14.33;;;13.53;;
7587;SDS011;3835;48.850;8.938;2023-11-18T12:01:21;13.87;;;12.90;;
7587;SDS011;3835;48.850;8.938;2023-11-18T12:03:55;14.13;;;13.33;;
7587;SDS011;3835;48.850;8.938;2023-11-18T12:06:23;15.63;;;14.63;;
7587;SDS011;3835;48.850;8.938;2023-11-18T12:08:52;14.43;;;13.57;;
7587;SDS011;3835;48.850;8.938;2023-11-18T12:11:20;14.50;;;13.77;;
7587;SDS011;3835;48.850;8.938;2023-11-18T12:14:00;13.60;;;12.80;;
7587;SDS011;3835;48.850;8.938;2023-11-18T12:19:33;13.30;;;12.50;;
7587;SDS011;3835;48.850;8.938;2023-11-18T12:22:12;12.73;;;12.03;;
7587;SDS011;3835;48.850;8.938;2023-11-18T12:24:44;13.33;;;12.53;;
7587;SDS011;3835;48.850;8.938;2023-11-18T12:27:43;13.30;;;12.60;;
7587;SDS011;3835;48.850;8.938;2023-11-18T12:33:16;12.90;;;12.23;;
7587;SDS011;3835;48.850;8.938;2023-11-18T12:35:51;12.50;;;11.90;;
7587;SDS011;3835;48.850;8.938;2023-11-18T12:38:51;12.13;;;11.43;;
7587;SDS011;3835;48.850;8.938;2023-11-18T12:41:44;12.57;;;11.83;;
7587;SDS011;3835;48.850;8.938;2023-11-18T12:44:24;12.63;;;11.93;;
7587;SDS011;3835;48.850;8.938;2023-11-18T12:46:59;12.77;;;12.07;;
7587;SDS011;3835;48.850;8.938;2023-11-18T12:49:36;13.10;;;12.40;;
7587;SDS011;3835;48.850;8.938;2023-11-18T12:52:06;12.80;;;12.10;;
7587;SDS011;3835;48.850;8.938;2023-11-18T12:54:34;13.47;;;12.57;;
7587;SDS011;3835;48.850;8.938;2023-11-18T12:57:09;13.13;;;12.33;;
7587;SDS011;3835;48.850;8.938;2023-11-18T12:59:39;13.27;;;12.47;;
7587;SDS011;3835;48.850;8.938;2023-11-18T13:02:06;13.00;;;12.20;;
7587;SDS011;3835;48.850;8.938;2023-11-18T13:04:38;13.23;;;12.53;;
7587;SDS011;3835;48.850;8.938;2023-11-18T13:07:05;13.00;;;12.10;;
7587;SDS011;3835;48.850;8.938;2023-11-18T13:09:33;11.83;;;11.03;;
7587;SDS011;3835;48.850;8.938;2023-11-18T13:12:01;11.97;;;11.23;;
7587;SDS011;3835;48.850;8.938;2023-11-18T13:14:32;12.67;;;11.97;;
7587;SDS011;3835;48.850;8.938;2023-11-18T13:17:01;13.03;;;12.27;;
7587;SDS011;3835;48.850;8.938;2023-11-18T13:19:31;12.47;;;11.70;;
7587;SDS011;3835;48.850;8.938;2023-11-18T13:21:59;12.73;;;12.03;;
7587;SDS011;3835;48.850;8.938;2023-11-18T13:24:28;13.50;;;12.70;;
7587;SDS011;3835;48.850;8.938;2023-11-18T13:26:56;11.73;;;11.13;;
7587;SDS011;3835;48.850;8.938;2023-11-18T13:29:24;12.57;;;11.97;;
7587;SDS011;3835;48.850;8.938;2023-11-18T13:31:53;13.53;;;12.53;;
7587;SDS011;3835;48.850;8.938;2023-11-18T13:34:21;12.60;;;11.80;;
7587;SDS011;3835;48.850;8.938;2023-11-18T13:36:48;13.27;;;12.17;;
7587;SDS011;3835;48.850;8.938;2023-11-18T13:39:16;12.87;;;12.03;;
7587;SDS011;3835;48.850;8.938;2023-11-18T13:41:43;12.73;;;12.03;;
7587;SDS011;3835;48.850;8.938;2023-11-18T13:44:11;12.97;;;11.87;;
7587;SDS011;3835;48.850;8.938;2023-11-18T13:46:38;12.00;;;11.40;;
7587;SDS011;3835;48.850;8.938;2023-11-18T13:49:07;12.97;;;12.10;;
7587;SDS011;3835;48.850;8.938;2023-11-18T13:51:34;12.87;;;12.13;;
7587;SDS011;3835;48.850;8.938;2023-11-18T13:54:01;11.73;;;11.13;;
7587;SDS011;3835;48.850;8.938;2023-11-18T13:56:29;12.77;;;11.97;;
7587;SDS011;3835;48.850;8.938;2023-11-18T13:58:57;13.00;;;12.20;;
7587;SDS011;3835;48.850;8.938;2023-11-18T14:01:24;12.73;;;12.03;;
7587;SDS011;3835;48.850;8.938;2023-11-18T14:03:53;12.57;;;11.60;;
7587;SDS011;3835;48.850;8.938;2023-11-18T14:06:21;13.70;;;12.77;;
7587;SDS011;3835;48.850;8.938;2023-11-18T14:08:48;12.87;;;11.80;;
7587;SDS011;3835;48.850;8.938;2023-11-18T14:11:15;12.73;;;11.90;;
7587;SDS011;3835;48.850;8.938;2023-11-18T14:13:42;13.90;;;13.00;;
7587;SDS011;3835;48.850;8.938;2023-11-18T14:16:09;12.73;;;11.97;;
7587;SDS011;3835;48.850;8.938;2023-11-18T14:18:37;13.70;;;12.83;;
7587;SDS011;3835;48.850;8.938;2023-11-18T14:21:06;13.77;;;12.97;;
7587;SDS011;3835;48.850;8.938;2023-11-18T14:23:35;12.57;;;11.77;;
7587;SDS011;3835;48.850;8.938;2023-11-18T14:26:04;13.30;;;12.30;;
7587;SDS011;3835;48.850;8.938;2023-11-18T14:28:32;13.73;;;12.67;;
7587;SDS011;3835;48.850;8.938;2023-11-18T14:30:59;12.33;;;11.60;;
7587;SDS011;3835;48.850;8.938;2023-11-18T14:33:26;12.00;;;11.20;;
7587;SDS011;3835;48.850;8.938;2023-11-18T14:35:53;13.53;;;12.53;;
7587;SDS011;3835;48.850;8.938;2023-11-18T14:38:21;12.53;;;11.57;;
7587;SDS011;3835;48.850;8.938;2023-11-18T14:40:49;13.53;;;12.67;;
7587;SDS011;3835;48.850;8.938;2023-11-18T14:43:16;15.07;;;14.07;;
7587;SDS011;3835;48.850;8.938;2023-11-18T14:45:43;13.00;;;12.03;;
7587;SDS011;3835;48.850;8.938;2023-11-18T14:48:10;12.67;;;11.77;;
7587;SDS011;3835;48.850;8.938;2023-11-18T14:50:38;14.73;;;13.90;;
7587;SDS011;3835;48.850;8.938;2023-11-18T14:53:05;14.13;;;13.23;;
7587;SDS011;3835;48.850;8.938;2023-11-18T14:55:32;14.03;;;13.20;;
7587;SDS011;3835;48.850;8.938;2023-11-18T14:58:00;14.03;;;13.23;;
7587;SDS011;3835;48.850;8.938;2023-11-18T15:00:29;13.23;;;12.37;;
7587;SDS011;3835;48.850;8.938;2023-11-18T15:02:58;14.30;;;13.50;;
7587;SDS011;3835;48.850;8.938;2023-11-18T15:05:25;14.03;;;13.23;;
7587;SDS011;3835;48.850;8.938;2023-11-18T15:07:53;13.50;;;12.40;;
7587;SDS011;3835;48.850;8.938;2023-11-18T15:10:22;15.77;;;14.43;;